createdAt,value
2019-03-29T00:01:00.591Z,0
2019-03-29T00:02:00.958Z,0
2019-03-29T00:03:01.722Z,0
2019-03-29T00:04:02.391Z,0
2019-03-29T00:05:03.746Z,0
2019-03-29T00:06:04.624Z,0
2019-03-29T00:07:06.016Z,0
2019-03-29T00:08:07.337Z,0
2019-03-29T00:09:07.747Z,0
2019-03-29T00:10:08.499Z,0
2019-03-29T00:11:08.542Z,0
2019-03-29T00:12:10.298Z,0
2019-03-29T00:13:10.058Z,0
2019-03-29T00:14:10.259Z,0
2019-03-29T00:15:10.751Z,0
2019-03-29T00:16:12.167Z,0
2019-03-29T00:17:12.918Z,0
2019-03-29T00:18:13.680Z,0
2019-03-29T00:19:13.882Z,0
2019-03-29T00:20:14.640Z,0
2019-03-29T00:21:15.116Z,0
2019-03-29T00:22:16.602Z,0
2019-03-29T00:23:17.121Z,0
2019-03-29T00:24:17.902Z,0
2019-03-29T00:25:19.225Z,0
2019-03-29T00:26:19.537Z,0
2019-03-29T00:27:20.540Z,0
2019-03-29T00:28:21.306Z,0
2019-03-29T00:29:22.341Z,0
2019-03-29T00:30:23.725Z,0
2019-03-29T00:31:24.774Z,0
2019-03-29T00:32:25.445Z,0
2019-03-29T00:33:26.758Z,0
2019-03-29T00:34:26.960Z,0
2019-03-29T00:35:28.052Z,0
2019-03-29T00:36:28.274Z,0
2019-03-29T00:37:28.759Z,0
2019-03-29T00:38:29.809Z,0
2019-03-29T00:39:30.564Z,0
2019-03-29T00:40:31.324Z,0
2019-03-29T00:41:31.288Z,0
2019-03-29T00:42:32.491Z,0
2019-03-29T00:43:32.698Z,0
2019-03-29T00:44:33.457Z,0
2019-03-29T00:45:34.272Z,0
2019-03-29T00:46:34.853Z,0
2019-03-29T00:47:35.894Z,0
2019-03-29T00:48:38.097Z,0
2019-03-29T00:49:38.854Z,0
2019-03-29T00:50:39.619Z,0
2019-03-29T00:51:40.107Z,0
2019-03-29T00:52:40.715Z,0
2019-03-29T00:53:41.772Z,0
2019-03-29T00:54:42.249Z,0
2019-03-29T00:55:43.557Z,0
2019-03-29T00:56:43.600Z,0
2019-03-29T00:57:44.364Z,0
2019-03-29T00:58:45.400Z,0
2019-03-29T00:59:45.176Z,0
2019-03-29T01:00:45.397Z,0
2019-03-29T01:01:46.438Z,0
2019-03-29T01:02:47.116Z,0
2019-03-29T01:03:48.441Z,0
2019-03-29T01:04:48.877Z,0
2019-03-29T01:05:50.190Z,0
2019-03-29T01:06:50.953Z,0
2019-03-29T01:07:51.792Z,0
2019-03-29T01:08:12.289Z,0
2019-03-29T01:09:11.979Z,0
2019-03-29T01:10:12.455Z,0
2019-03-29T01:11:12.666Z,0
2019-03-29T01:12:12.940Z,0
2019-03-29T01:13:13.697Z,0
2019-03-29T01:14:14.606Z,0
2019-03-29T01:15:15.114Z,0
2019-03-29T01:16:15.619Z,0
2019-03-29T01:17:16.399Z,0
2019-03-29T01:18:17.281Z,0
2019-03-29T01:19:17.496Z,0
2019-03-29T01:20:17.923Z,0
2019-03-29T01:21:18.429Z,0
2019-03-29T01:22:19.211Z,0
2019-03-29T01:23:19.986Z,0
2019-03-29T01:24:20.197Z,0
2019-03-29T01:25:20.681Z,0
2019-03-29T01:26:21.793Z,0
2019-03-29T01:27:22.292Z,0
2019-03-29T01:28:23.650Z,0
2019-03-29T01:29:23.850Z,0
2019-03-29T01:30:24.434Z,0
2019-03-29T01:31:24.914Z,0
2019-03-29T01:32:25.393Z,0
2019-03-29T01:33:26.643Z,0
2019-03-29T01:34:27.127Z,0
2019-03-29T01:35:28.173Z,0
2019-03-29T01:36:29.949Z,0
2019-03-29T01:37:30.165Z,0
2019-03-29T01:38:30.925Z,0
2019-03-29T01:39:31.979Z,0
2019-03-29T01:40:32.180Z,0
2019-03-29T01:41:32.661Z,0
2019-03-29T01:42:33.462Z,0
2019-03-29T01:43:34.239Z,0
2019-03-29T01:44:35.312Z,0
2019-03-29T01:45:36.346Z,0
2019-03-29T01:46:37.861Z,0
2019-03-29T01:47:37.903Z,0
2019-03-29T01:48:38.665Z,0
2019-03-29T01:49:39.446Z,0
2019-03-29T01:50:40.021Z,0
2019-03-29T01:51:40.512Z,0
2019-03-29T01:52:40.713Z,0
2019-03-29T01:53:41.471Z,0
2019-03-29T01:54:42.255Z,0
2019-03-29T01:55:42.823Z,0
2019-03-29T01:56:43.303Z,0
2019-03-29T01:57:44.431Z,0
2019-03-29T01:58:45.186Z,0
2019-03-29T01:59:45.935Z,0
2019-03-29T02:00:46.137Z,0
2019-03-29T02:01:46.894Z,0
2019-03-29T02:02:49.058Z,0
2019-03-29T02:03:49.818Z,0
2019-03-29T02:04:50.582Z,0
2019-03-29T02:05:51.337Z,0
2019-03-29T02:06:52.385Z,0
2019-03-29T02:07:53.422Z,0
2019-03-29T02:08:54.470Z,0
2019-03-29T02:09:55.122Z,0
2019-03-29T02:10:55.972Z,0
2019-03-29T02:11:56.508Z,0
2019-03-29T02:12:56.997Z,0
2019-03-29T02:13:57.824Z,0
2019-03-29T02:14:58.314Z,0
2019-03-29T02:16:00.183Z,0
2019-03-29T02:16:59.388Z,0
2019-03-29T02:17:59.870Z,0
2019-03-29T02:19:00.071Z,0
2019-03-29T02:20:01.881Z,0
2019-03-29T02:21:01.680Z,0
2019-03-29T02:22:02.168Z,0
2019-03-29T02:23:04.855Z,0
2019-03-29T02:24:04.614Z,0
2019-03-29T02:25:05.778Z,0
2019-03-29T02:26:06.816Z,0
2019-03-29T02:27:07.711Z,0
2019-03-29T02:28:07.915Z,0
2019-03-29T02:29:08.951Z,0
2019-03-29T02:30:10.938Z,0
2019-03-29T02:31:12.224Z,0
2019-03-29T02:32:12.579Z,0
2019-03-29T02:33:13.090Z,0
2019-03-29T02:34:16.910Z,0
2019-03-29T02:35:15.243Z,0
2019-03-29T02:36:16.330Z,0
2019-03-29T02:37:17.215Z,0
2019-03-29T02:38:18.255Z,0
2019-03-29T02:39:19.572Z,0
2019-03-29T02:40:20.397Z,0
2019-03-29T02:41:22.380Z,0
2019-03-29T02:42:23.049Z,0
2019-03-29T02:43:23.976Z,0
2019-03-29T02:44:24.600Z,0
2019-03-29T02:45:26.059Z,0
2019-03-29T02:46:27.926Z,0
2019-03-29T02:47:28.250Z,0
2019-03-29T02:48:28.846Z,0
2019-03-29T02:49:29.182Z,0
2019-03-29T02:50:30.696Z,0
2019-03-29T02:51:33.447Z,0
2019-03-29T02:52:31.504Z,0
2019-03-29T02:53:33.095Z,0
2019-03-29T02:54:33.744Z,0
2019-03-29T02:55:35.126Z,0
2019-03-29T02:56:34.977Z,0
2019-03-29T02:57:36.323Z,0
2019-03-29T02:58:36.647Z,0
2019-03-29T02:59:38.281Z,0
2019-03-29T03:00:38.561Z,0
2019-03-29T03:01:40.174Z,0
2019-03-29T03:02:40.817Z,0
2019-03-29T03:03:42.108Z,0
2019-03-29T03:04:42.704Z,0
2019-03-29T03:05:43.518Z,0
2019-03-29T03:06:44.865Z,0
2019-03-29T03:07:46.497Z,0
2019-03-29T03:08:47.133Z,0
2019-03-29T03:09:48.744Z,0
2019-03-29T03:10:49.191Z,0
2019-03-29T03:11:49.989Z,0
2019-03-29T03:12:50.628Z,0
2019-03-29T03:13:51.590Z,0
2019-03-29T03:14:52.193Z,0
2019-03-29T03:15:52.807Z,0
2019-03-29T03:16:53.690Z,0
2019-03-29T03:17:54.854Z,0
2019-03-29T03:18:54.932Z,0
2019-03-29T03:19:55.994Z,0
2019-03-29T03:20:57.884Z,0
2019-03-29T03:21:57.681Z,0
2019-03-29T03:22:59.129Z,0
2019-03-29T03:23:59.244Z,0
2019-03-29T03:25:00.994Z,0
2019-03-29T03:26:00.928Z,0
2019-03-29T03:27:01.820Z,0
2019-03-29T03:28:03.138Z,0
2019-03-29T03:29:04.347Z,0
2019-03-29T03:30:04.231Z,0
2019-03-29T03:31:05.809Z,0
2019-03-29T03:32:06.533Z,0
2019-03-29T03:33:07.809Z,0
2019-03-29T03:34:08.635Z,0
2019-03-29T03:35:09.126Z,0
2019-03-29T03:36:10.091Z,0
2019-03-29T03:37:10.785Z,0
2019-03-29T03:38:11.729Z,0
2019-03-29T03:39:30.084Z,0
2019-03-29T03:39:34.935Z,0
2019-03-29T03:40:33.736Z,0
2019-03-29T03:41:35.072Z,0
2019-03-29T03:42:36.530Z,0
2019-03-29T03:43:36.850Z,0
2019-03-29T03:44:38.467Z,0
2019-03-29T03:45:39.063Z,0
2019-03-29T03:46:39.549Z,0
2019-03-29T03:47:40.699Z,0
2019-03-29T03:48:42.317Z,0
2019-03-29T03:49:42.084Z,0
2019-03-29T03:50:43.299Z,0
2019-03-29T03:51:43.954Z,0
2019-03-29T03:52:44.009Z,0
2019-03-29T03:53:45.351Z,0
2019-03-29T03:54:45.490Z,0
2019-03-29T03:55:47.373Z,0
2019-03-29T03:56:47.695Z,0
2019-03-29T03:57:47.216Z,0
2019-03-29T03:58:48.562Z,0
2019-03-29T03:59:49.893Z,0
2019-03-29T04:00:50.938Z,0
2019-03-29T04:01:51.119Z,0
2019-03-29T04:02:51.600Z,0
2019-03-29T04:03:53.586Z,0
2019-03-29T04:04:53.929Z,0
2019-03-29T04:05:53.722Z,0
2019-03-29T04:06:54.488Z,0
2019-03-29T04:07:55.522Z,0
2019-03-29T04:08:55.860Z,0
2019-03-29T04:09:56.635Z,0
2019-03-29T04:10:57.895Z,0
2019-03-29T04:11:58.841Z,0
2019-03-29T04:12:59.156Z,0
2019-03-29T04:13:59.920Z,0
2019-03-29T04:15:01.287Z,0
2019-03-29T04:16:02.907Z,0
2019-03-29T04:17:02.703Z,0
2019-03-29T04:18:03.625Z,0
2019-03-29T04:19:03.750Z,0
2019-03-29T04:20:04.647Z,0
2019-03-29T04:21:06.053Z,0
2019-03-29T04:22:06.667Z,0
2019-03-29T04:23:06.758Z,0
2019-03-29T04:24:07.890Z,0
2019-03-29T04:25:08.660Z,0
2019-03-29T04:26:09.756Z,0
2019-03-29T04:27:11.355Z,0
2019-03-29T04:28:12.405Z,0
2019-03-29T04:29:12.956Z,0
2019-03-29T04:30:13.561Z,0
2019-03-29T04:31:14.514Z,0
2019-03-29T04:32:15.268Z,4
2019-03-29T04:33:16.943Z,0
2019-03-29T04:34:17.267Z,0
2019-03-29T04:35:18.318Z,4
2019-03-29T04:36:18.375Z,0
2019-03-29T04:37:19.151Z,4
2019-03-29T04:38:21.079Z,4
2019-03-29T04:39:20.842Z,4
2019-03-29T04:40:21.896Z,4
2019-03-29T04:41:22.420Z,8
2019-03-29T04:42:23.753Z,8
2019-03-29T04:43:25.071Z,8
2019-03-29T04:44:25.978Z,8
2019-03-29T04:45:26.313Z,16
2019-03-29T04:46:27.105Z,16
2019-03-29T04:47:27.976Z,20
2019-03-29T04:48:29.352Z,24
2019-03-29T04:49:29.398Z,28
2019-03-29T04:50:29.919Z,32
2019-03-29T04:51:31.444Z,40
2019-03-29T04:52:31.646Z,44
2019-03-29T04:53:32.459Z,48
2019-03-29T04:54:33.498Z,56
2019-03-29T04:55:33.975Z,64
2019-03-29T04:56:34.731Z,76
2019-03-29T04:57:35.527Z,84
2019-03-29T04:58:35.730Z,96
2019-03-29T04:59:36.488Z,108
2019-03-29T05:00:37.246Z,124
2019-03-29T05:01:38.187Z,136
2019-03-29T05:02:38.945Z,148
2019-03-29T05:03:38.709Z,164
2019-03-29T05:04:39.484Z,180
2019-03-29T05:05:40.536Z,200
2019-03-29T05:06:40.927Z,216
2019-03-29T05:07:42.175Z,232
2019-03-29T05:08:42.897Z,252
2019-03-29T05:09:43.235Z,276
2019-03-29T05:10:44.487Z,296
2019-03-29T05:11:44.720Z,320
2019-03-29T05:12:45.764Z,340
2019-03-29T05:13:46.666Z,364
2019-03-29T05:14:47.148Z,388
2019-03-29T05:15:47.635Z,412
2019-03-29T05:16:48.671Z,436
2019-03-29T05:17:49.152Z,460
2019-03-29T05:18:49.629Z,484
2019-03-29T05:19:50.119Z,512
2019-03-29T05:20:50.889Z,540
2019-03-29T05:21:51.539Z,560
2019-03-29T05:22:52.307Z,588
2019-03-29T05:23:52.792Z,616
2019-03-29T05:24:53.265Z,640
2019-03-29T05:25:54.594Z,664
2019-03-29T05:26:54.729Z,692
2019-03-29T05:27:55.774Z,720
2019-03-29T05:28:57.179Z,744
2019-03-29T05:29:58.213Z,772
2019-03-29T05:30:57.978Z,800
2019-03-29T05:31:58.150Z,824
2019-03-29T05:32:59.053Z,852
2019-03-29T05:33:59.819Z,880
2019-03-29T05:35:00.596Z,908
2019-03-29T05:36:01.126Z,936
2019-03-29T05:37:01.660Z,960
2019-03-29T05:38:01.865Z,988
2019-03-29T05:39:02.687Z,1016
2019-03-29T05:40:03.734Z,1044
2019-03-29T05:41:09.923Z,1072
2019-03-29T05:41:19.413Z,1076
2019-03-29T05:41:27.888Z,1084
2019-03-29T05:42:25.539Z,1108
2019-03-29T05:43:32.049Z,1140
2019-03-29T05:43:40.370Z,1144
2019-03-29T05:44:36.869Z,1172
2019-03-29T05:45:38.146Z,1200
2019-03-29T05:46:39.130Z,1224
2019-03-29T05:47:40.126Z,1256
2019-03-29T05:48:40.384Z,1280
2019-03-29T05:49:45.435Z,1312
2019-03-29T05:50:48.915Z,1344
2019-03-29T05:50:57.289Z,1348
2019-03-29T05:51:59.491Z,1392
2019-03-29T05:52:08.587Z,1400
2019-03-29T05:52:19.161Z,1412
2019-03-29T05:52:29.935Z,1416
2019-03-29T05:52:36.047Z,1424
2019-03-29T05:53:35.011Z,1488
2019-03-29T05:54:35.491Z,1560
2019-03-29T05:55:36.545Z,1624
2019-03-29T05:56:37.093Z,1692
2019-03-29T05:57:39.080Z,1748
2019-03-29T05:58:39.719Z,1800
2019-03-29T05:59:39.764Z,1852
2019-03-29T06:00:41.933Z,1908
2019-03-29T06:01:42.251Z,1964
2019-03-29T06:02:43.297Z,2020
2019-03-29T06:03:43.510Z,2076
2019-03-29T06:04:44.076Z,2128
2019-03-29T06:05:48.917Z,2184
2019-03-29T06:06:47.377Z,2236
2019-03-29T06:07:53.194Z,2292
2019-03-29T06:08:02.486Z,2304
2019-03-29T06:08:12.733Z,2312
2019-03-29T06:08:22.816Z,2320
2019-03-29T06:08:33.833Z,2328
2019-03-29T06:08:40.739Z,2332
2019-03-29T06:09:40.929Z,2388
2019-03-29T06:10:51.154Z,2448
2019-03-29T06:11:50.419Z,2496
2019-03-29T06:12:50.622Z,2540
2019-03-29T06:13:51.937Z,2592
2019-03-29T06:14:58.403Z,7980
2019-03-29T06:15:04.918Z,9752
2019-03-29T06:16:06.942Z,21248
2019-03-29T06:17:06.823Z,28992
2019-03-29T06:17:13.935Z,29632
2019-03-29T06:18:15.008Z,37152
2019-03-29T06:19:16.506Z,36032
2019-03-29T06:20:16.633Z,31872
2019-03-29T06:21:17.709Z,39104
2019-03-29T06:22:19.898Z,34784
2019-03-29T06:23:18.393Z,33568
2019-03-29T06:24:20.659Z,38112
2019-03-29T06:25:21.759Z,36416
2019-03-29T06:26:24.416Z,40736
2019-03-29T06:27:23.283Z,43296
2019-03-29T06:28:23.239Z,44992
2019-03-29T06:29:25.827Z,46176
2019-03-29T06:30:24.878Z,46784
2019-03-29T06:31:25.759Z,46656
2019-03-29T06:32:26.364Z,47616
2019-03-29T06:33:32.941Z,47840
2019-03-29T06:33:44.199Z,48160
2019-03-29T06:33:50.441Z,48320
2019-03-29T06:34:47.839Z,53184
2019-03-29T06:35:48.685Z,53184
2019-03-29T06:36:54.717Z,53536
2019-03-29T06:37:04.414Z,53792
2019-03-29T06:37:14.651Z,53984
2019-03-29T06:37:23.642Z,53984
2019-03-29T06:38:19.830Z,53280
2019-03-29T06:39:27.924Z,46784
2019-03-29T06:39:36.078Z,46336
2019-03-29T06:39:45.721Z,45984
2019-03-29T06:40:42.067Z,52928
2019-03-29T06:41:42.842Z,54048
2019-03-29T06:42:43.059Z,52128
2019-03-29T06:43:43.556Z,45536
2019-03-29T06:44:46.630Z,43104
2019-03-29T06:45:50.278Z,52704
2019-03-29T06:46:50.273Z,52736
2019-03-29T06:47:52.068Z,56416
2019-03-29T06:48:54.413Z,48032
2019-03-29T06:49:54.449Z,38400
2019-03-29T06:50:57.439Z,29728
2019-03-29T06:51:55.990Z,44448
2019-03-29T06:52:55.964Z,40896
2019-03-29T06:53:56.936Z,32512
2019-03-29T06:54:59.093Z,40160
2019-03-29T06:56:01.374Z,35680
2019-03-29T06:57:02.708Z,34720
2019-03-29T06:58:03.361Z,31040
2019-03-29T06:59:03.171Z,20704
2019-03-29T07:00:03.231Z,23840
2019-03-29T07:01:08.471Z,35712
2019-03-29T07:02:07.039Z,50560
2019-03-29T07:03:06.868Z,51424
2019-03-29T07:04:12.997Z,41344
2019-03-29T07:04:19.257Z,41056
2019-03-29T07:05:22.415Z,36672
2019-03-29T07:06:21.219Z,41184
2019-03-29T07:07:24.733Z,49888
2019-03-29T07:08:23.595Z,40000
2019-03-29T07:09:27.991Z,31584
2019-03-29T07:09:37.897Z,29216
2019-03-29T07:10:35.565Z,19072
2019-03-29T07:11:40.586Z,12264
2019-03-29T07:12:40.681Z,10360
2019-03-29T07:13:38.447Z,9464
2019-03-29T07:14:38.671Z,10240
2019-03-29T07:15:39.452Z,11716
2019-03-29T07:16:41.074Z,12448
2019-03-29T07:17:42.243Z,12460
2019-03-29T07:18:43.069Z,12664
2019-03-29T07:19:43.305Z,13664
2019-03-29T07:20:44.289Z,13216
2019-03-29T07:21:45.352Z,12800
2019-03-29T07:22:45.858Z,16384
2019-03-29T07:23:47.579Z,23488
2019-03-29T07:24:48.636Z,35072
2019-03-29T07:25:48.702Z,41088
2019-03-29T07:26:49.288Z,38912
2019-03-29T07:27:54.314Z,33600
2019-03-29T07:28:54.818Z,17216
2019-03-29T07:29:55.874Z,25120
2019-03-29T07:30:56.108Z,17184
2019-03-29T07:31:56.690Z,6580
2019-03-29T07:32:57.219Z,10556
2019-03-29T07:33:58.557Z,14136
2019-03-29T07:34:59.347Z,16640
2019-03-29T07:35:59.054Z,25568
2019-03-29T07:36:59.552Z,25664
2019-03-29T07:38:00.330Z,31968
2019-03-29T07:39:01.025Z,38240
2019-03-29T07:40:03.102Z,49920
2019-03-29T07:41:03.786Z,49344
2019-03-29T07:42:06.562Z,43360
2019-03-29T07:43:06.904Z,40992
2019-03-29T07:44:08.412Z,44544
2019-03-29T07:45:13.500Z,45504
2019-03-29T07:45:23.057Z,45504
2019-03-29T07:46:20.053Z,40992
2019-03-29T07:47:20.550Z,36640
2019-03-29T07:48:21.153Z,34336
2019-03-29T07:49:21.932Z,23808
2019-03-29T07:50:22.159Z,18144
2019-03-29T07:51:23.009Z,15488
2019-03-29T07:52:23.696Z,16640
2019-03-29T07:53:24.321Z,16640
2019-03-29T07:54:25.101Z,16096
2019-03-29T07:55:26.940Z,15136
2019-03-29T07:56:27.244Z,13928
2019-03-29T07:57:28.603Z,11724
2019-03-29T07:58:28.385Z,12276
2019-03-29T07:59:29.459Z,10788
2019-03-29T08:00:29.959Z,12620
2019-03-29T08:01:36.654Z,15168
2019-03-29T08:01:41.044Z,15232
2019-03-29T08:02:43.206Z,19936
2019-03-29T08:03:42.520Z,21600
2019-03-29T08:04:42.743Z,22624
2019-03-29T08:05:43.366Z,26784
2019-03-29T08:06:47.470Z,32000
2019-03-29T08:07:44.331Z,30560
2019-03-29T08:08:45.119Z,27232
2019-03-29T08:09:46.094Z,32608
2019-03-29T08:10:46.871Z,32096
2019-03-29T08:11:48.511Z,36832
2019-03-29T08:12:51.832Z,43936
2019-03-29T08:13:52.199Z,46944
2019-03-29T08:14:52.293Z,43392
2019-03-29T08:15:53.884Z,37472
2019-03-29T08:16:55.880Z,36416
2019-03-29T08:17:55.617Z,40288
2019-03-29T08:18:56.395Z,49056
2019-03-29T08:20:49.442Z,58112
2019-03-29T08:21:50.238Z,39008
2019-03-29T08:22:51.009Z,25120
2019-03-29T08:23:52.247Z,22208
2019-03-29T08:24:52.694Z,21728
2019-03-29T08:25:53.769Z,15616
2019-03-29T08:26:53.825Z,9560
2019-03-29T08:27:54.345Z,12580
2019-03-29T08:28:55.125Z,15968
2019-03-29T08:29:55.627Z,17888
2019-03-29T08:30:56.132Z,15968
2019-03-29T08:31:57.385Z,10828
2019-03-29T08:32:57.988Z,13760
2019-03-29T08:33:58.839Z,16384
2019-03-29T08:34:59.923Z,16576
2019-03-29T08:36:00.757Z,16576
2019-03-29T08:37:02.037Z,16672
2019-03-29T08:38:02.172Z,20000
2019-03-29T08:39:03.624Z,26688
2019-03-29T08:40:04.926Z,32160
2019-03-29T08:41:05.265Z,38208
2019-03-29T08:42:06.237Z,31136
2019-03-29T08:43:06.882Z,29312
2019-03-29T08:44:07.663Z,33696
2019-03-29T08:45:08.792Z,33056
2019-03-29T08:46:12.612Z,30784
2019-03-29T08:47:10.530Z,30240
2019-03-29T08:48:11.304Z,29504
2019-03-29T08:49:12.081Z,19712
2019-03-29T08:50:14.102Z,7200
2019-03-29T08:51:13.143Z,7852
2019-03-29T08:52:14.403Z,6552
2019-03-29T08:53:15.501Z,7084
2019-03-29T08:54:16.291Z,17216
2019-03-29T08:55:21.064Z,27232
2019-03-29T08:56:20.621Z,33824
2019-03-29T08:57:21.954Z,38304
2019-03-29T08:58:21.741Z,43296
2019-03-29T08:59:22.253Z,45792
2019-03-29T09:00:25.639Z,45216
2019-03-29T09:01:24.784Z,40672
2019-03-29T09:02:27.271Z,21280
2019-03-29T09:03:28.058Z,31840
2019-03-29T09:04:32.380Z,41440
2019-03-29T09:05:29.805Z,36576
2019-03-29T09:06:32.152Z,43552
2019-03-29T09:07:46.814Z,29248
2019-03-29T09:08:43.916Z,37312
2019-03-29T09:09:56.748Z,19104
2019-03-29T09:10:56.035Z,9960
2019-03-29T09:11:58.271Z,11392
2019-03-29T09:12:59.159Z,18208
2019-03-29T09:14:04.525Z,13908
2019-03-29T09:14:13.450Z,12992
2019-03-29T09:14:20.190Z,12360
2019-03-29T09:15:22.001Z,12036
2019-03-29T09:16:20.995Z,9544
2019-03-29T09:17:21.661Z,9004
2019-03-29T09:18:28.246Z,14876
2019-03-29T09:18:37.335Z,15616
2019-03-29T09:18:47.676Z,16736
2019-03-29T09:18:57.281Z,17568
2019-03-29T09:19:53.206Z,24960
2019-03-29T09:20:54.981Z,21632
2019-03-29T09:22:00.488Z,21760
2019-03-29T09:22:08.682Z,22912
2019-03-29T09:23:06.228Z,27904
2019-03-29T09:24:32.201Z,31456
2019-03-29T09:24:42.514Z,30240
2019-03-29T09:24:52.909Z,28992
2019-03-29T09:25:03.162Z,29088
2019-03-29T09:25:12.131Z,28640
2019-03-29T09:26:12.137Z,30720
2019-03-29T09:27:10.910Z,28736
2019-03-29T09:28:14.729Z,30112
2019-03-29T09:29:19.152Z,24576
2019-03-29T09:29:28.510Z,25440
2019-03-29T09:29:36.711Z,25280
2019-03-29T09:30:37.570Z,29696
2019-03-29T09:31:36.527Z,36256
2019-03-29T09:32:38.761Z,40864
2019-03-29T09:33:38.721Z,40480
2019-03-29T09:34:41.015Z,31360
2019-03-29T09:35:44.446Z,19168
2019-03-29T09:36:49.325Z,23680
2019-03-29T09:37:46.650Z,30304
2019-03-29T09:38:48.035Z,31328
2019-03-29T09:39:52.412Z,32928
2019-03-29T09:41:03.147Z,28864
2019-03-29T09:42:02.483Z,33312
2019-03-29T09:43:12.936Z,38880
2019-03-29T09:44:13.925Z,40096
2019-03-29T09:45:15.252Z,40896
2019-03-29T09:46:15.773Z,36192
2019-03-29T09:47:16.293Z,37472
2019-03-29T09:48:19.252Z,33376
2019-03-29T09:49:18.488Z,37056
2019-03-29T09:50:25.914Z,32160
2019-03-29T09:50:29.477Z,31872
2019-03-29T09:51:30.373Z,31008
2019-03-29T09:52:30.878Z,37472
2019-03-29T09:53:32.916Z,35616
2019-03-29T09:54:32.768Z,35712
2019-03-29T09:55:34.115Z,29824
2019-03-29T09:56:41.186Z,24000
2019-03-29T09:56:48.620Z,23392
2019-03-29T09:57:42.008Z,22944
2019-03-29T09:58:45.893Z,28448
2019-03-29T09:59:42.958Z,30560
2019-03-29T10:00:43.478Z,27968
2019-03-29T10:01:44.519Z,23328
2019-03-29T10:02:45.037Z,21152
2019-03-29T10:03:45.828Z,24416
2019-03-29T10:04:46.413Z,22464
2019-03-29T10:05:46.923Z,23648
2019-03-29T10:06:48.153Z,25760
2019-03-29T10:07:49.863Z,29920
2019-03-29T10:08:54.313Z,32800
2019-03-29T10:09:51.097Z,35424
2019-03-29T10:10:52.156Z,37024
2019-03-29T10:11:53.491Z,35936
2019-03-29T10:12:54.023Z,36960
2019-03-29T10:13:56.114Z,37728
2019-03-29T10:14:56.903Z,36384
2019-03-29T10:15:57.130Z,35040
2019-03-29T10:16:57.368Z,35488
2019-03-29T10:17:58.271Z,36096
2019-03-29T10:18:58.982Z,35200
2019-03-29T10:19:59.765Z,34656
2019-03-29T10:20:59.466Z,35040
2019-03-29T10:22:00.824Z,35072
2019-03-29T10:23:01.668Z,32736
2019-03-29T10:24:01.751Z,28352
2019-03-29T10:25:23.282Z,22144
2019-03-29T10:26:22.758Z,16384
2019-03-29T10:27:23.553Z,12980
2019-03-29T10:28:23.903Z,11684
2019-03-29T10:29:24.138Z,11196
2019-03-29T10:30:25.470Z,11004
2019-03-29T10:31:35.599Z,10840
2019-03-29T10:32:36.350Z,10780
2019-03-29T10:33:39.278Z,10696
2019-03-29T10:34:39.929Z,10624
2019-03-29T10:35:54.425Z,10580
2019-03-29T10:36:52.114Z,10556
2019-03-29T10:37:52.115Z,10520
2019-03-29T10:38:58.220Z,10520
2019-03-29T10:39:07.371Z,10540
2019-03-29T10:40:03.550Z,10512
2019-03-29T10:41:04.051Z,10528
2019-03-29T10:42:05.128Z,10508
2019-03-29T10:43:05.666Z,10476
2019-03-29T10:44:06.465Z,10492
2019-03-29T10:45:07.021Z,10512
2019-03-29T10:46:08.799Z,10536
2019-03-29T10:47:09.012Z,10560
2019-03-29T10:48:09.688Z,10612
2019-03-29T10:49:10.603Z,10624
2019-03-29T10:50:11.375Z,10664
2019-03-29T10:51:11.620Z,10664
2019-03-29T10:52:12.687Z,10688
2019-03-29T10:53:12.192Z,10700
2019-03-29T10:54:13.268Z,10708
2019-03-29T10:55:18.912Z,10688
2019-03-29T10:55:27.620Z,10700
2019-03-29T10:56:36.049Z,10720
2019-03-29T10:57:35.156Z,10708
2019-03-29T10:58:36.489Z,10704
2019-03-29T10:59:37.272Z,10700
2019-03-29T11:00:37.915Z,10716
2019-03-29T11:01:39.564Z,10704
2019-03-29T11:02:40.072Z,10700
2019-03-29T11:03:40.869Z,10708
2019-03-29T11:04:45.163Z,10724
2019-03-29T11:05:44.349Z,10708
2019-03-29T11:06:46.062Z,10748
2019-03-29T11:06:56.528Z,10764
2019-03-29T11:07:56.596Z,10756
2019-03-29T11:08:56.616Z,10740
2019-03-29T11:10:29.121Z,10752
2019-03-29T11:11:28.620Z,10740
2019-03-29T11:12:31.434Z,10736
2019-03-29T11:13:30.787Z,10728
2019-03-29T11:14:32.819Z,10728
2019-03-29T11:15:32.101Z,10656
2019-03-29T11:16:35.005Z,10664
2019-03-29T11:17:34.918Z,10664
2019-03-29T11:18:34.974Z,10616
2019-03-29T11:19:35.839Z,10596
2019-03-29T11:20:36.631Z,10580
2019-03-29T11:21:37.738Z,10588
2019-03-29T11:22:38.244Z,10576
2019-03-29T11:23:38.469Z,10584
2019-03-29T11:24:39.558Z,10572
2019-03-29T11:25:40.398Z,10544
2019-03-29T11:26:40.623Z,10564
2019-03-29T11:27:40.923Z,10516
2019-03-29T11:28:41.783Z,10484
2019-03-29T11:29:42.298Z,10424
2019-03-29T11:30:44.734Z,10400
2019-03-29T11:31:45.825Z,10400
2019-03-29T11:32:47.187Z,10364
2019-03-29T11:33:47.689Z,10352
2019-03-29T11:34:53.622Z,10324
2019-03-29T11:35:03.374Z,10336
2019-03-29T11:35:14.118Z,10324
2019-03-29T11:35:21.412Z,10332
2019-03-29T11:36:19.875Z,10312
2019-03-29T11:37:20.106Z,10296
2019-03-29T11:38:20.869Z,10280
2019-03-29T11:39:21.659Z,10276
2019-03-29T11:40:22.168Z,10256
2019-03-29T11:41:22.952Z,10228
2019-03-29T11:42:23.516Z,10212
2019-03-29T11:43:39.651Z,10208
2019-03-29T11:43:50.223Z,10208
2019-03-29T11:43:57.216Z,10204
2019-03-29T11:44:58.933Z,10200
2019-03-29T11:45:57.851Z,10188
2019-03-29T11:46:57.377Z,10196
2019-03-29T11:48:10.846Z,10216
2019-03-29T11:49:08.096Z,10228
2019-03-29T11:50:08.363Z,10252
2019-03-29T11:51:25.317Z,10300
2019-03-29T11:51:34.585Z,10296
2019-03-29T11:51:45.341Z,10288
2019-03-29T11:51:55.281Z,10304
2019-03-29T11:52:03.780Z,10320
2019-03-29T11:53:01.587Z,10348
2019-03-29T11:54:02.958Z,10376
2019-03-29T11:55:03.317Z,10428
2019-03-29T11:56:03.843Z,10432
2019-03-29T11:57:04.342Z,10464
2019-03-29T11:58:05.737Z,10500
2019-03-29T11:59:06.143Z,10572
2019-03-29T12:00:06.648Z,10656
2019-03-29T12:01:08.375Z,10700
2019-03-29T12:02:08.959Z,10816
2019-03-29T12:03:11.439Z,10864
2019-03-29T12:04:11.943Z,10784
2019-03-29T12:05:13.022Z,10756
2019-03-29T12:06:13.808Z,10720
2019-03-29T12:07:14.594Z,10708
2019-03-29T12:08:14.925Z,10668
2019-03-29T12:09:15.129Z,10648
2019-03-29T12:10:15.634Z,10640
2019-03-29T12:11:16.146Z,10620
2019-03-29T12:12:17.204Z,10620
2019-03-29T12:13:17.726Z,10632
2019-03-29T12:14:18.002Z,10588
2019-03-29T12:15:18.872Z,10576
2019-03-29T12:16:19.929Z,10524
2019-03-29T12:17:20.052Z,10480
2019-03-29T12:18:20.279Z,10472
2019-03-29T12:19:21.997Z,10432
2019-03-29T12:20:22.056Z,10380
2019-03-29T12:21:23.121Z,10356
2019-03-29T12:22:23.254Z,10316
2019-03-29T12:23:23.917Z,10280
2019-03-29T12:24:24.423Z,10216
2019-03-29T12:25:25.205Z,10180
2019-03-29T12:26:26.261Z,10184
2019-03-29T12:27:27.319Z,10172
2019-03-29T12:28:28.182Z,10160
2019-03-29T12:29:28.966Z,10132
2019-03-29T12:30:33.993Z,10236
2019-03-29T12:31:34.777Z,10276
2019-03-29T12:32:35.278Z,10304
2019-03-29T12:33:36.858Z,10312
2019-03-29T12:34:40.717Z,10300
2019-03-29T12:34:51.075Z,10304
2019-03-29T12:35:48.533Z,10320
2019-03-29T12:36:50.134Z,10328
2019-03-29T12:37:49.969Z,10376
2019-03-29T12:38:50.195Z,10432
2019-03-29T12:39:51.340Z,10496
2019-03-29T12:40:53.285Z,10512
2019-03-29T12:41:53.003Z,10512
2019-03-29T12:42:53.248Z,10576
2019-03-29T12:43:57.722Z,10576
2019-03-29T12:44:58.504Z,10624
2019-03-29T12:45:58.759Z,10668
2019-03-29T12:46:59.260Z,11060
2019-03-29T12:47:59.542Z,13644
2019-03-29T12:49:00.144Z,17088
2019-03-29T12:50:01.120Z,18656
2019-03-29T12:51:02.538Z,17856
2019-03-29T12:52:03.131Z,16416
2019-03-29T12:53:04.503Z,15648
2019-03-29T12:54:08.110Z,15584
2019-03-29T12:54:17.662Z,15680
2019-03-29T12:55:16.363Z,14720
2019-03-29T12:56:16.864Z,13248
2019-03-29T12:57:18.047Z,12100
2019-03-29T12:58:18.698Z,11244
2019-03-29T12:59:19.812Z,10928
2019-03-29T13:00:20.599Z,10908
2019-03-29T13:01:21.113Z,10876
2019-03-29T13:02:21.647Z,10844
2019-03-29T13:03:24.750Z,10832